Aérodrome :
LOGIN :

S'inscrire | Disclaimer

   EN    FR    IT 

 










Légende :    VFR   VFR Marginal   IFR   IFR Intensif   IFR Très Intensif
Visi : 
Plafond : 
>= 8 km
>= 3000ft
5 à 8 km
1000 à 3000 ft
1500m à 5 km
500 à 1000 ft
800 à 1500m
200 à 500 ft
< 800m
< 200 ft
Symboles :   Orages  Brouillard  Fortes neiges  Fortes précipitations  Vent > 20 kt
SIGMETs :   Divers  Orages  Givrage  Turbulence  Onde Orograph.  Cendres Volcan.







- Altitude de l'aérodrome : 1682 ft
- Code IATA : VIT


LEVT - Vitoria Gasteiz

DERNIER METAR :
  • 180700Z VRB02KT 0300 R04/0450N R22/0500N FZFG VV001 M00/M00 Q1025

METARs EXPIRÉS :
  • 180630Z 00000KT 0300 R04/0450N R22/0550N FZFG VV001 M01/M01 Q1024
  • 180600Z 00000KT 0300 R04/0550N R22/0550U FZFG VV001 M00/M00 Q1025
  • 180530Z 00000KT 0300 R04/0600N R22/0450N FZFG VV001 M00/M00 Q1025
  • 180500Z 00000KT 0300 R04/0500D R22/0550N FZFG VV001 M00/M00 Q1025
  • 180430Z 00000KT 0300 R04/0400N R22/0550N FZFG VV001 M00/M00 Q1025

TAF TAF LEVT
Valide du 18 à 06h jusqu'au 19 à 06h UTC


180500Z 1806/1906 VRB05KT 9999 FEW030 TX11/1814Z TNM01/1806Z
TEMPO 1806/1812 1500 BCFG BKN005
PROB40
TEMPO 1806/1812 0350 FG FZFG VV001
PROB40
TEMPO 1806/1812 0150 FG FZFG VV001
TEMPO 1900/1906 BKN010 BKN014
Pas de NOTAMs connus pour ce terrain.



MET'MAP, la Météo Aéronautique d'un coup d'oeil ! - Copyright ORBIFLY Décembre 2007 - Disclaimer

ORBIFLY MET'MAP TEAM :

Programmation & Développement : Alexandra Zaïnal
Conception & Développement : Baudouin d'Aumeries
Co-Programmation & Développement : Marc-Olivier Méhu
Soutien technique & logistique : Manuel Goepfert

Contact : metmap@orbifly.com




SOURCES & CREDITS :

   NOAA